createdAt,value
2022-09-03T00:00:45.369Z,92982.16
2022-09-03T00:02:24.721Z,92987.59
2022-09-03T00:03:57.477Z,92981.06
2022-09-03T00:05:41.961Z,92980.28
2022-09-03T00:14:31.446Z,92978.94
2022-09-03T00:25:57.577Z,92963.59
2022-09-03T00:26:58.238Z,92955.97
2022-09-03T00:28:34.562Z,92956.34
2022-09-03T00:30:09.134Z,92952.38
2022-09-03T00:31:47.830Z,92950.47
2022-09-03T00:33:22.061Z,92943.09
2022-09-03T00:35:01.330Z,92946.16
2022-09-03T00:36:36.592Z,92948.53
2022-09-03T00:38:08.537Z,92945.81
2022-09-03T00:39:40.584Z,92933.69
2022-09-03T00:41:17.089Z,92943.78
2022-09-03T00:42:54.984Z,92940.72
2022-09-03T00:44:32.241Z,92942.19
2022-09-03T00:46:19.751Z,92945.28
2022-09-03T00:47:54.199Z,92942.56
2022-09-03T00:49:41.873Z,92944.84
2022-09-03T00:51:17.461Z,92951.44
2022-09-03T00:52:52.525Z,92950.56
2022-09-03T00:54:28.689Z,92949.31
2022-09-03T00:56:04.680Z,92950.56
2022-09-03T00:57:41.540Z,92959.84
2022-09-03T00:59:31.406Z,92950.56
2022-09-03T01:01:10.352Z,92957.56
2022-09-03T01:02:51.091Z,92955.66
2022-09-03T01:04:31.707Z,92954.56
2022-09-03T01:06:22.327Z,92945.28
2022-09-03T01:08:13.223Z,92953.88
2022-09-03T01:09:48.324Z,92956.16
2022-09-03T01:11:40.169Z,92955.00
2022-09-03T01:13:17.046Z,92962.38
2022-09-03T01:14:52.652Z,92958.19
2022-09-03T01:16:33.744Z,92962.47
2022-09-03T01:18:17.486Z,92975.38
2022-09-03T01:19:52.258Z,92976.19
2022-09-03T01:21:42.705Z,92970.34
2022-09-03T01:23:36.089Z,92980.91
2022-09-03T01:25:17.973Z,92978.34
2022-09-03T01:26:53.840Z,92983.81
2022-09-03T01:28:35.689Z,92978.97
2022-09-03T01:30:19.942Z,92990.38
2022-09-03T01:31:54.110Z,92993.47
2022-09-03T01:33:34.200Z,92998.84
2022-09-03T01:35:05.793Z,93003.56
2022-09-03T01:36:37.558Z,93004.34
2022-09-03T01:38:12.676Z,93006.28
2022-09-03T01:39:47.116Z,93006.63
2022-09-03T01:41:48.559Z,93004.28
2022-09-03T01:43:24.289Z,93014.72
2022-09-03T01:45:14.978Z,93004.97
2022-09-03T01:46:46.973Z,93014.28
2022-09-03T01:48:21.464Z,93007.59
2022-09-03T01:49:53.052Z,93008.66
2022-09-03T01:51:25.207Z,93007.09
2022-09-03T01:52:59.790Z,93014.09
2022-09-03T01:54:36.788Z,93016.44
2022-09-03T01:56:11.250Z,93014.53
2022-09-03T01:57:45.995Z,93014.09
2022-09-03T01:59:20.123Z,93014.91
2022-09-03T02:00:53.572Z,93007.94
2022-09-03T02:02:25.936Z,93014.16
2022-09-03T02:04:00.063Z,93008.72
2022-09-03T02:05:31.657Z,93004.09
2022-09-03T02:07:03.561Z,93012.25
2022-09-03T02:08:35.335Z,93001.72
2022-09-03T02:10:20.133Z,93005.66
2022-09-03T02:11:54.012Z,93003.28
2022-09-03T02:13:27.044Z,93009.53
2022-09-03T02:14:58.798Z,93005.66
2022-09-03T02:16:31.878Z,93008.03
2022-09-03T02:18:04.133Z,93012.34
2022-09-03T02:19:37.793Z,93002.25
2022-09-03T02:21:10.801Z,93007.69
2022-09-03T02:22:42.294Z,93002.59
2022-09-03T02:24:14.227Z,93002.16
2022-09-03T02:25:46.937Z,93004.88
2022-09-03T02:27:19.691Z,93016.44
2022-09-03T02:28:51.556Z,93016.19
2022-09-03T02:30:23.359Z,93013.75
2022-09-03T02:31:55.025Z,93014.31
2022-09-03T02:33:26.584Z,93016.44
2022-09-03T02:34:58.568Z,93019.88
2022-09-03T02:36:32.091Z,93014.06
2022-09-03T02:38:13.821Z,93006.69
2022-09-03T02:39:45.509Z,93014.94
2022-09-03T02:41:17.858Z,93008.03
2022-09-03T02:42:49.505Z,93007.47
2022-09-03T02:44:26.025Z,93010.91
2022-09-03T02:45:59.951Z,93015.19
2022-09-03T02:47:32.223Z,93018.81
2022-09-03T02:49:04.028Z,93019.25
2022-09-03T02:50:41.107Z,93017.31
2022-09-03T02:52:12.711Z,93019.69
2022-09-03T02:53:44.315Z,93016.53
2022-09-03T02:55:15.997Z,93015.38
2022-09-03T02:56:49.844Z,93015.38
2022-09-03T02:58:21.538Z,93016.09
2022-09-03T02:59:53.112Z,93019.94
2022-09-03T03:01:24.837Z,93023.78
2022-09-03T03:02:56.569Z,93027.75
2022-09-03T03:04:28.270Z,93030.56
2022-09-03T03:06:01.048Z,93023.66
2022-09-03T03:07:32.785Z,93025.19
2022-09-03T03:09:05.975Z,93024.84
2022-09-03T03:10:38.248Z,93015.91
2022-09-03T03:12:10.440Z,93010.13
2022-09-03T03:13:41.949Z,93003.81
2022-09-03T03:15:14.166Z,93004.97
2022-09-03T03:16:45.884Z,93002.66
2022-09-03T03:18:17.844Z,92999.19
2022-09-03T03:19:49.431Z,93005.75
2022-09-03T03:21:21.029Z,92994.69
2022-09-03T03:22:52.592Z,92995.41
2022-09-03T03:24:24.123Z,92995.03
2022-09-03T03:26:01.028Z,93001.19
2022-09-03T03:27:32.823Z,92991.00
2022-09-03T03:29:07.264Z,93000.72
2022-09-03T03:30:40.348Z,92993.81
2022-09-03T03:32:11.936Z,92990.72
2022-09-03T03:33:43.644Z,92993.38
2022-09-03T03:35:15.243Z,92992.56
2022-09-03T03:36:46.830Z,92998.34
2022-09-03T03:38:19.372Z,92999.84
2022-09-03T03:39:51.375Z,93001.09
2022-09-03T03:41:24.211Z,93005.22
2022-09-03T03:42:57.534Z,93010.09
2022-09-03T03:44:29.429Z,93007.53
2022-09-03T03:46:01.207Z,93014.56
2022-09-03T03:47:33.541Z,93013.09
2022-09-03T03:49:06.623Z,93005.81
2022-09-03T03:50:38.273Z,93004.69
2022-09-03T03:52:09.857Z,93007.84
2022-09-03T03:53:41.494Z,93009.41
2022-09-03T03:55:13.115Z,93016.34
2022-09-03T03:56:50.842Z,93022.91
2022-09-03T03:58:28.253Z,93021.66
2022-09-03T03:59:59.838Z,93022.38
2022-09-03T04:01:31.687Z,93028.50
2022-09-03T04:03:04.296Z,93028.50
2022-09-03T04:04:35.945Z,93022.16
2022-09-03T04:06:07.941Z,93016.28
2022-09-03T04:07:39.626Z,93022.50
2022-09-03T04:09:11.722Z,93019.00
2022-09-03T04:10:43.616Z,93022.94
2022-09-03T04:12:15.413Z,93022.94
2022-09-03T04:13:47.531Z,93021.03
2022-09-03T04:15:19.497Z,93026.47
2022-09-03T04:16:51.338Z,93021.47
2022-09-03T04:18:23.758Z,93023.97
2022-09-03T04:19:55.382Z,93027.88
2022-09-03T04:21:28.533Z,93026.41
2022-09-03T04:23:01.345Z,93028.09
2022-09-03T04:24:32.872Z,93027.38
2022-09-03T04:26:04.794Z,93028.97
2022-09-03T04:27:36.493Z,93034.50
2022-09-03T04:29:09.222Z,93038.59
2022-09-03T04:30:41.228Z,93039.81
2022-09-03T04:32:31.747Z,93045.38
2022-09-03T04:34:03.333Z,93049.31
2022-09-03T04:35:35.901Z,93048.97
2022-09-03T04:37:10.183Z,93051.69
2022-09-03T04:38:42.869Z,93050.34
2022-09-03T04:40:14.774Z,93057.97
2022-09-03T04:41:46.400Z,93046.31
2022-09-03T04:43:18.389Z,93057.53
2022-09-03T04:44:50.034Z,93062.63
2022-09-03T04:46:22.309Z,93055.69
2022-09-03T04:48:00.515Z,93055.34
2022-09-03T04:49:32.196Z,93060.78
2022-09-03T04:51:07.454Z,93058.84
2022-09-03T04:52:39.185Z,93059.66
2022-09-03T04:54:11.127Z,93064.41
2022-09-03T04:55:42.736Z,93062.13
2022-09-03T04:57:14.284Z,93073.44
2022-09-03T04:58:46.125Z,93073.06
2022-09-03T05:00:20.967Z,93071.59
2022-09-03T05:01:52.938Z,93073.63
2022-09-03T05:03:24.818Z,93074.09
2022-09-03T05:04:56.444Z,93072.94
2022-09-03T05:06:28.554Z,93078.72
2022-09-03T05:08:03.325Z,93079.53
2022-09-03T05:09:35.310Z,93079.59
2022-09-03T05:11:07.571Z,93078.56
2022-09-03T05:12:39.477Z,93077.09
2022-09-03T05:14:14.059Z,93086.03
2022-09-03T05:15:45.814Z,93082.19
2022-09-03T05:17:17.626Z,93086.47
2022-09-03T05:18:52.216Z,93088.94
2022-09-03T05:20:24.364Z,93086.31
2022-09-03T05:21:56.352Z,93084.72
2022-09-03T05:23:31.455Z,93083.94
2022-09-03T05:25:06.407Z,93076.91
2022-09-03T05:26:39.186Z,93077.72
2022-09-03T05:28:11.495Z,93078.50
2022-09-03T05:29:43.719Z,93077.72
2022-09-03T05:31:17.355Z,93083.16
2022-09-03T05:32:49.279Z,93088.25
2022-09-03T05:34:21.213Z,93088.34
2022-09-03T05:35:53.882Z,93091.84
2022-09-03T05:37:25.600Z,93093.06
2022-09-03T05:38:58.691Z,93092.28
2022-09-03T05:40:31.314Z,93086.16
2022-09-03T05:42:03.092Z,93082.28
2022-09-03T05:43:34.889Z,93083.44
2022-09-03T05:45:11.090Z,93081.94
2022-09-03T05:46:42.673Z,93078.88
2022-09-03T05:48:14.329Z,93087.72
2022-09-03T05:49:45.916Z,93087.97
2022-09-03T05:51:17.695Z,93086.66
2022-09-03T05:52:49.540Z,93090.16
2022-09-03T05:54:21.136Z,93087.78
2022-09-03T05:55:58.979Z,93084.97
2022-09-03T05:57:31.045Z,93080.66
2022-09-03T05:59:05.960Z,93082.59
2022-09-03T06:00:37.625Z,93081.47
2022-09-03T06:02:09.412Z,93081.56
2022-09-03T06:03:44.234Z,93086.16
2022-09-03T06:05:17.109Z,93089.03
2022-09-03T06:06:49.087Z,93091.97
2022-09-03T06:08:21.312Z,93098.66
2022-09-03T06:09:53.036Z,93096.78
2022-09-03T06:11:29.740Z,93097.78
2022-09-03T06:13:03.983Z,93094.56
2022-09-03T06:14:35.776Z,93102.19
2022-09-03T06:16:07.651Z,93098.38
2022-09-03T06:17:39.485Z,93095.06
2022-09-03T06:19:11.570Z,93097.78
2022-09-03T06:20:43.287Z,93094.28
2022-09-03T06:41:15.224Z,93095.41
2022-09-03T06:42:55.267Z,93093.22
2022-09-03T06:44:26.921Z,93091.00
2022-09-03T06:46:02.752Z,93093.00
2022-09-03T06:47:34.651Z,93096.31
2022-09-03T06:49:06.823Z,93094.19
2022-09-03T06:50:38.437Z,93098.31
2022-09-03T06:52:10.564Z,93097.66
2022-09-03T06:53:43.593Z,93093.91
2022-09-03T06:55:15.762Z,93100.97
2022-09-03T06:56:47.395Z,93104.13
2022-09-03T06:58:19.209Z,93106.97
2022-09-03T06:59:51.249Z,93108.22
2022-09-03T07:01:23.619Z,93100.47
2022-09-03T07:03:03.575Z,93100.53
2022-09-03T07:04:35.542Z,93102.09
2022-09-03T07:06:11.168Z,93097.38
2022-09-03T07:07:44.980Z,93099.72
2022-09-03T07:09:18.611Z,93099.72
2022-09-03T07:10:51.788Z,93109.16
2022-09-03T07:12:24.043Z,93113.84
2022-09-03T07:13:56.202Z,93114.66
2022-09-03T07:15:28.086Z,93117.06
2022-09-03T07:16:59.863Z,93125.78
2022-09-03T07:18:32.049Z,93119.13
2022-09-03T07:20:03.947Z,93121.41
2022-09-03T07:21:36.958Z,93136.59
2022-09-03T07:23:08.700Z,93131.84
2022-09-03T07:24:40.301Z,93132.66
2022-09-03T07:26:13.113Z,93138.09
2022-09-03T07:27:44.675Z,93140.72
2022-09-03T07:29:21.294Z,93145.03
2022-09-03T07:30:53.847Z,93137.88
2022-09-03T07:32:25.544Z,93137.94
2022-09-03T07:33:57.696Z,93130.91
2022-09-03T07:35:29.303Z,93141.88
2022-09-03T07:37:01.326Z,93135.66
2022-09-03T07:38:36.378Z,93132.16
2022-09-03T07:40:08.622Z,93130.94
2022-09-03T07:41:45.580Z,93134.50
2022-09-03T07:43:19.340Z,93129.88
2022-09-03T07:44:50.970Z,93143.59
2022-09-03T07:46:24.018Z,93136.59
2022-09-03T07:47:56.207Z,93139.75
2022-09-03T07:49:28.070Z,93144.09
2022-09-03T07:51:03.045Z,93151.97
2022-09-03T07:52:34.992Z,93150.94
2022-09-03T07:54:08.087Z,93159.94
2022-09-03T07:55:40.508Z,93154.91
2022-09-03T07:57:12.142Z,93156.97
2022-09-03T07:58:43.916Z,93163.25
2022-09-03T08:00:16.018Z,93164.09
2022-09-03T08:01:47.923Z,93164.53
2022-09-03T08:03:21.190Z,93162.69
2022-09-03T08:04:52.927Z,93168.59
2022-09-03T08:06:25.725Z,93170.13
2022-09-03T08:07:57.636Z,93160.44
2022-09-03T08:09:29.603Z,93159.34
2022-09-03T08:11:10.372Z,93168.03
2022-09-03T08:12:42.285Z,93170.94
2022-09-03T08:14:14.445Z,93165.19
2022-09-03T08:15:56.010Z,93169.22
2022-09-03T08:17:27.760Z,93168.91
2022-09-03T08:18:59.752Z,93160.78
2022-09-03T08:20:31.401Z,93157.75
2022-09-03T08:22:03.394Z,93160.22
2022-09-03T08:23:38.617Z,93161.09
2022-09-03T08:25:11.819Z,93161.19
2022-09-03T08:26:51.461Z,93160.44
2022-09-03T08:28:24.544Z,93152.63
2022-09-03T08:29:56.510Z,93160.50
2022-09-03T08:31:29.456Z,93160.09
2022-09-03T08:33:01.966Z,93160.94
2022-09-03T08:34:33.653Z,93159.03
2022-09-03T08:36:15.302Z,93156.72
2022-09-03T08:37:51.776Z,93156.00
2022-09-03T08:39:26.603Z,93144.59
2022-09-03T08:41:05.531Z,93143.47
2022-09-03T08:42:44.537Z,93141.13
2022-09-03T08:44:16.206Z,93141.97
2022-09-03T08:45:48.483Z,93143.13
2022-09-03T08:47:34.893Z,93147.47
2022-09-03T08:49:06.855Z,93146.69
2022-09-03T08:50:42.757Z,93144.72
2022-09-03T08:52:22.755Z,93139.59
2022-09-03T08:53:56.361Z,93139.25
2022-09-03T08:55:29.351Z,93138.88
2022-09-03T08:57:01.714Z,93135.31
2022-09-03T08:58:33.720Z,93137.69
2022-09-03T09:00:05.853Z,93138.91
2022-09-03T09:01:57.873Z,93136.94
2022-09-03T09:03:38.792Z,93136.56
2022-09-03T09:05:14.395Z,93140.53
2022-09-03T09:06:47.520Z,93144.50
2022-09-03T09:08:21.684Z,93137.44
2022-09-03T09:10:12.810Z,93135.91
2022-09-03T09:11:47.475Z,93136.69
2022-09-03T09:13:19.486Z,93134.72
2022-09-03T09:14:52.927Z,93139.84
2022-09-03T09:16:31.991Z,93132.78
2022-09-03T09:18:11.651Z,93133.19
2022-09-03T09:20:02.820Z,93135.94
2022-09-03T09:21:36.348Z,93139.09
2022-09-03T09:23:09.322Z,93135.94
2022-09-03T09:24:42.520Z,93132.78
2022-09-03T09:26:14.693Z,93140.66
2022-09-03T09:28:15.545Z,93142.97
2022-09-03T09:29:48.269Z,93142.97
2022-09-03T09:31:20.574Z,93135.16
2022-09-03T09:32:52.799Z,93148.50
2022-09-03T09:34:24.666Z,93137.13
2022-09-03T09:35:56.863Z,93140.28
2022-09-03T09:37:29.254Z,93134.38
2022-09-03T09:39:10.180Z,93144.97
2022-09-03T09:40:45.074Z,93146.94
2022-09-03T09:42:17.112Z,93156.38
2022-09-03T09:43:49.335Z,93167.34
2022-09-03T09:45:21.197Z,93159.06
2022-09-03T09:47:03.815Z,93159.41
2022-09-03T09:48:37.866Z,93155.41
2022-09-03T09:50:26.307Z,93154.94
2022-09-03T09:52:02.328Z,93159.16
2022-09-03T09:53:35.508Z,93162.69
2022-09-03T09:55:08.529Z,93164.72
2022-09-03T09:56:42.650Z,93154.47
2022-09-03T09:58:14.761Z,93160.41
2022-09-03T09:59:46.493Z,93160.44
2022-09-03T10:01:22.284Z,93162.44
2022-09-03T10:02:56.970Z,93159.69
2022-09-03T10:04:33.389Z,93162.53
2022-09-03T10:06:27.758Z,93164.94
2022-09-03T10:08:06.710Z,93157.88
2022-09-03T10:09:38.380Z,93150.81
2022-09-03T10:11:10.330Z,93153.91
2022-09-03T10:12:52.329Z,93153.09
2022-09-03T10:14:25.032Z,93154.63
2022-09-03T10:16:11.587Z,93150.34
2022-09-03T10:18:02.365Z,93157.84
2022-09-03T10:20:12.847Z,93156.25
2022-09-03T10:21:50.388Z,93160.88
2022-09-03T10:23:26.270Z,93160.41
2022-09-03T10:25:01.182Z,93152.53
2022-09-03T10:26:33.763Z,93157.69
2022-09-03T10:28:06.377Z,93158.47
2022-09-03T10:29:41.078Z,93151.38
2022-09-03T10:31:32.103Z,93153.69
2022-09-03T10:33:31.632Z,93150.53
2022-09-03T10:35:13.015Z,93156.44
2022-09-03T10:37:07.794Z,93159.50
2022-09-03T10:38:39.681Z,93152.00
2022-09-03T10:40:30.189Z,93164.28
2022-09-03T10:42:07.921Z,93164.00
2022-09-03T10:43:46.331Z,93163.53
2022-09-03T10:45:19.501Z,93166.13
2022-09-03T10:46:57.632Z,93160.47
2022-09-03T10:48:34.702Z,93158.41
2022-09-03T10:50:10.640Z,93158.69
2022-09-03T10:51:47.476Z,93159.78
2022-09-03T10:53:27.528Z,93167.13
2022-09-03T10:55:15.713Z,93165.38
2022-09-03T10:56:56.229Z,93160.81
2022-09-03T10:58:28.064Z,93158.63
2022-09-03T11:00:14.519Z,93161.72
2022-09-03T11:01:52.742Z,93160.16
2022-09-03T11:03:24.945Z,93154.09
2022-09-03T11:04:58.830Z,93149.47
2022-09-03T11:06:31.260Z,93151.19
2022-09-03T11:08:23.324Z,93154.53
2022-09-03T11:10:29.669Z,93148.28
2022-09-03T11:12:09.924Z,93158.06
2022-09-03T11:13:49.257Z,93153.72
2022-09-03T11:15:27.934Z,93156.38
2022-09-03T11:17:05.412Z,93158.66
2022-09-03T11:18:38.757Z,93163.00
2022-09-03T11:20:12.884Z,93167.97
2022-09-03T11:21:44.819Z,93163.19
2022-09-03T11:23:17.143Z,93160.50
2022-09-03T11:24:55.832Z,93161.06
2022-09-03T11:26:28.075Z,93165.34
2022-09-03T11:27:59.901Z,93169.94
2022-09-03T11:29:31.835Z,93167.25
2022-09-03T11:31:06.569Z,93172.53
2022-09-03T11:32:44.466Z,93166.72
2022-09-03T11:34:32.302Z,93164.50
2022-09-03T11:36:06.657Z,93164.66
2022-09-03T11:37:45.262Z,93168.69
2022-09-03T11:39:24.938Z,93165.59
2022-09-03T11:40:59.320Z,93163.97
2022-09-03T11:42:33.230Z,93158.44
2022-09-03T11:44:17.684Z,93156.66
2022-09-03T11:45:50.600Z,93165.50
2022-09-03T11:47:22.402Z,93159.78
2022-09-03T11:48:55.860Z,93161.00
2022-09-03T11:50:28.656Z,93159.91
2022-09-03T11:52:01.490Z,93163.81
2022-09-03T11:53:36.628Z,93164.22
2022-09-03T11:55:08.644Z,93164.19
2022-09-03T11:56:41.166Z,93158.53
2022-09-03T11:58:14.364Z,93153.78
2022-09-03T11:59:46.239Z,93152.34
2022-09-03T12:01:21.154Z,93156.31
2022-09-03T12:02:58.988Z,93149.94
2022-09-03T12:04:34.444Z,93147.47
2022-09-03T12:06:25.363Z,93150.13
2022-09-03T12:08:09.193Z,93142.50
2022-09-03T12:09:45.146Z,93148.75
2022-09-03T12:11:39.994Z,93147.38
2022-09-03T12:13:33.557Z,93148.38
2022-09-03T12:15:10.992Z,93140.06
2022-09-03T12:16:49.679Z,93139.56
2022-09-03T12:18:25.076Z,93133.63
2022-09-03T12:19:58.267Z,93135.06
2022-09-03T12:21:30.812Z,93137.28
2022-09-03T12:23:04.854Z,93142.75
2022-09-03T12:24:38.382Z,93131.97
2022-09-03T12:26:15.072Z,93133.06
2022-09-03T12:27:47.202Z,93137.69
2022-09-03T12:29:23.726Z,93130.22
2022-09-03T12:31:22.538Z,93122.25
2022-09-03T12:33:05.029Z,93123.41
2022-09-03T12:34:36.765Z,93127.19
2022-09-03T12:36:09.209Z,93129.47
2022-09-03T12:41:28.161Z,93136.03
2022-09-03T12:45:07.767Z,93134.09
2022-09-03T12:46:40.835Z,93128.47
2022-09-03T12:48:15.876Z,93125.91
2022-09-03T12:49:49.654Z,93121.13
2022-09-03T12:53:13.814Z,93119.50
2022-09-03T12:54:50.638Z,93115.03
2022-09-03T12:56:22.482Z,93115.47
2022-09-03T12:57:57.013Z,93111.47
2022-09-03T12:59:34.351Z,93107.72
2022-09-03T13:01:10.310Z,93111.97
2022-09-03T13:02:46.616Z,93111.69
2022-09-03T13:04:22.034Z,93109.97
2022-09-03T13:05:58.386Z,93103.00
2022-09-03T13:07:33.826Z,93114.75
2022-09-03T13:09:06.578Z,93104.38
2022-09-03T13:10:39.023Z,93098.78
2022-09-03T13:12:20.720Z,93103.69
2022-09-03T13:13:54.281Z,93103.75
2022-09-03T13:15:25.881Z,93096.41
2022-09-03T13:17:07.015Z,93090.38
2022-09-03T13:18:41.938Z,93089.81
2022-09-03T13:20:16.359Z,93090.72
2022-09-03T13:22:06.592Z,93088.03
2022-09-03T13:23:42.171Z,93100.28
2022-09-03T13:25:49.709Z,93089.59
2022-09-03T13:27:21.492Z,93096.25
2022-09-03T13:29:00.579Z,93092.22
2022-09-03T13:30:38.830Z,93096.06
2022-09-03T13:32:27.643Z,93102.34
2022-09-03T13:34:08.354Z,93090.16
2022-09-03T13:35:46.310Z,93088.97
2022-09-03T13:37:27.333Z,93099.81
2022-09-03T13:39:03.535Z,93094.50
2022-09-03T13:40:50.244Z,93090.25
2022-09-03T13:42:25.156Z,93084.41
2022-09-03T13:44:23.448Z,93088.41
2022-09-03T13:45:56.727Z,93083.22
2022-09-03T13:48:08.758Z,93090.25
2022-09-03T13:50:03.602Z,93082.22
2022-09-03T13:51:39.021Z,93086.91
2022-09-03T13:53:22.896Z,93072.56
2022-09-03T13:54:56.464Z,93076.16
2022-09-03T13:57:06.749Z,93082.91
2022-09-03T13:58:49.255Z,93083.19
2022-09-03T14:00:44.523Z,93086.81
2022-09-03T14:02:35.020Z,93087.81
2022-09-03T14:04:10.982Z,93088.19
2022-09-03T14:06:00.449Z,93090.75
2022-09-03T14:07:35.634Z,93084.59
2022-09-03T14:09:16.405Z,93087.75
2022-09-03T14:11:00.568Z,93093.81
2022-09-03T14:12:47.065Z,93098.56
2022-09-03T14:14:37.719Z,93094.91
2022-09-03T14:16:27.893Z,93092.50
2022-09-03T14:18:01.918Z,93096.00
2022-09-03T14:19:37.702Z,93096.81
2022-09-03T14:21:14.684Z,93093.19
2022-09-03T14:22:55.941Z,93089.97
2022-09-03T14:24:57.970Z,93089.09
2022-09-03T14:26:39.445Z,93092.13
2022-09-03T14:28:30.493Z,93088.19
2022-09-03T14:30:03.262Z,93096.06
2022-09-03T14:31:52.425Z,93098.91
2022-09-03T14:33:29.915Z,93100.97
2022-09-03T14:35:11.004Z,93103.38
2022-09-03T14:36:50.187Z,93104.25
2022-09-03T14:38:28.963Z,93093.25
2022-09-03T14:40:17.323Z,93092.13
2022-09-03T14:41:50.716Z,93102.03
2022-09-03T14:43:22.615Z,93089.78
2022-09-03T14:44:58.403Z,93085.00
2022-09-03T14:46:48.512Z,93092.09
2022-09-03T14:48:23.548Z,93099.59
2022-09-03T14:50:04.460Z,93097.25
2022-09-03T14:51:51.911Z,93090.66
2022-09-03T14:53:42.763Z,93093.56
2022-09-03T14:55:14.633Z,93099.28
2022-09-03T14:57:05.999Z,93095.84
2022-09-03T14:58:50.824Z,93097.50
2022-09-03T15:00:26.323Z,93103.09
2022-09-03T15:02:24.717Z,93101.22
2022-09-03T15:04:00.393Z,93099.81
2022-09-03T15:05:34.847Z,93104.53
2022-09-03T15:07:08.956Z,93108.16
2022-09-03T15:08:53.189Z,93103.03
2022-09-03T15:10:37.852Z,93103.84
2022-09-03T15:12:26.135Z,93103.50
2022-09-03T15:14:20.513Z,93109.44
2022-09-03T15:16:01.793Z,93100.03
2022-09-03T15:17:33.676Z,93101.59
2022-09-03T15:19:17.437Z,93104.75
2022-09-03T15:20:51.013Z,93105.53
2022-09-03T15:22:22.966Z,93106.69
2022-09-03T15:23:55.122Z,93110.22
2022-09-03T15:25:42.224Z,93108.28
2022-09-03T15:27:20.406Z,93103.22
2022-09-03T15:29:27.659Z,93109.56
2022-09-03T15:31:21.185Z,93105.22
2022-09-03T15:32:55.859Z,93112.72
2022-09-03T15:34:27.695Z,93108.06
2022-09-03T15:36:07.988Z,93103.38
2022-09-03T15:37:43.891Z,93100.28
2022-09-03T15:39:22.350Z,93110.19
2022-09-03T15:40:55.720Z,93116.53
2022-09-03T15:42:28.134Z,93120.88
2022-09-03T15:44:00.668Z,93118.53
2022-09-03T15:45:39.889Z,93105.94
2022-09-03T15:47:28.695Z,93109.50
2022-09-03T15:49:19.570Z,93116.25
2022-09-03T15:51:12.454Z,93109.97
2022-09-03T15:53:16.811Z,93103.31
2022-09-03T15:54:49.121Z,93103.69
2022-09-03T15:56:33.591Z,93102.50
2022-09-03T15:58:24.300Z,93110.78
2022-09-03T15:59:59.225Z,93117.84
2022-09-03T16:01:34.081Z,93110.38
2022-09-03T16:03:23.136Z,93119.03
2022-09-03T16:04:56.095Z,93113.91
2022-09-03T16:06:39.396Z,93117.84
2022-09-03T16:08:23.917Z,93109.56
2022-09-03T16:10:23.144Z,93119.78
2022-09-03T16:11:55.871Z,93121.34
2022-09-03T16:13:30.732Z,93119.75
2022-09-03T16:15:04.178Z,93125.59
2022-09-03T16:16:42.685Z,93127.13
2022-09-03T16:18:16.119Z,93120.81
2022-09-03T16:20:06.395Z,93127.44
2022-09-03T16:21:49.998Z,93121.53
2022-09-03T16:23:23.409Z,93123.84
2022-09-03T16:25:07.545Z,93117.13
2022-09-03T16:26:44.340Z,93121.00
2022-09-03T16:28:18.267Z,93127.66
2022-09-03T16:30:02.141Z,93131.16
2022-09-03T16:31:34.119Z,93132.63
2022-09-03T16:33:24.591Z,93132.97
2022-09-03T16:35:01.984Z,93137.69
2022-09-03T16:36:39.476Z,93143.91
2022-09-03T16:39:49.130Z,93146.19
2022-09-03T16:41:21.781Z,93150.03
2022-09-03T16:42:55.534Z,93148.38
2022-09-03T16:44:39.253Z,93135.44
2022-09-03T16:46:17.360Z,93139.63
2022-09-03T16:47:57.815Z,93141.97
2022-09-03T16:49:38.290Z,93139.13
2022-09-03T16:51:29.056Z,93141.41
2022-09-03T16:53:19.776Z,93136.25
2022-09-03T16:55:00.272Z,93142.41
2022-09-03T16:56:38.101Z,93145.47
2022-09-03T16:58:48.117Z,93141.44
2022-09-03T17:00:22.966Z,93137.81
2022-09-03T17:01:55.698Z,93146.00
2022-09-03T17:03:40.173Z,93155.34
2022-09-03T17:05:17.946Z,93151.81
2022-09-03T17:07:09.537Z,93151.75
2022-09-03T17:08:47.632Z,93159.59
2022-09-03T17:10:31.947Z,93153.63
2022-09-03T17:12:10.104Z,93161.00
2022-09-03T17:13:55.810Z,93163.72
2022-09-03T17:15:40.522Z,93151.56
2022-09-03T17:17:27.432Z,93162.47
2022-09-03T17:19:05.944Z,93168.28
2022-09-03T17:20:37.799Z,93167.50
2022-09-03T17:22:28.174Z,93180.81
2022-09-03T17:24:05.533Z,93181.53
2022-09-03T17:25:37.982Z,93167.00
2022-09-03T17:27:28.849Z,93178.28
2022-09-03T17:29:00.526Z,93179.75
2022-09-03T17:30:53.890Z,93179.97
2022-09-03T17:32:46.592Z,93181.50
2022-09-03T17:34:36.794Z,93200.59
2022-09-03T17:36:08.887Z,93197.38
2022-09-03T17:37:58.820Z,93198.94
2022-09-03T17:39:31.030Z,93205.91
2022-09-03T17:41:08.921Z,93208.28
2022-09-03T17:42:51.616Z,93207.84
2022-09-03T17:44:35.464Z,93209.38
2022-09-03T17:46:07.121Z,93206.56
2022-09-03T17:47:57.799Z,93207.72
2022-09-03T17:49:33.143Z,93218.28
2022-09-03T17:51:06.556Z,93216.19
2022-09-03T17:52:39.264Z,93224.38
2022-09-03T17:54:25.285Z,93221.63
2022-09-03T17:55:58.123Z,93221.22
2022-09-03T17:57:31.511Z,93240.38
2022-09-03T17:59:03.385Z,93233.72
2022-09-03T18:00:38.766Z,93240.72
2022-09-03T18:02:29.017Z,93240.63
2022-09-03T18:04:27.336Z,93248.00
2022-09-03T18:06:04.966Z,93252.63
2022-09-03T18:07:39.332Z,93253.78
2022-09-03T18:09:17.329Z,93245.13
2022-09-03T18:11:03.176Z,93252.44
2022-09-03T18:12:35.209Z,93255.09
2022-09-03T18:14:25.839Z,93253.09
2022-09-03T18:16:03.665Z,93257.34
2022-09-03T18:17:37.944Z,93259.31
2022-09-03T18:19:57.632Z,93261.13
2022-09-03T18:21:49.014Z,93263.81
2022-09-03T18:23:40.525Z,93269.56
2022-09-03T18:25:30.770Z,93274.19
2022-09-03T18:27:23.115Z,93276.44
2022-09-03T18:29:23.980Z,93273.25
2022-09-03T18:31:14.571Z,93268.59
2022-09-03T18:33:04.900Z,93260.75
2022-09-03T18:34:57.881Z,93270.00
2022-09-03T18:36:49.654Z,93271.91
2022-09-03T18:38:44.929Z,93266.38
2022-09-03T18:40:41.609Z,93269.44
2022-09-03T18:42:38.756Z,93275.63
2022-09-03T18:44:38.042Z,93270.56
2022-09-03T18:49:03.099Z,93281.47
2022-09-03T18:51:08.567Z,93280.88
2022-09-03T18:53:15.850Z,93284.97
2022-09-03T18:55:12.550Z,93293.13
2022-09-03T18:57:06.951Z,93288.06
2022-09-03T18:59:00.850Z,93288.06
2022-09-03T19:00:51.939Z,93291.22
2022-09-03T19:02:50.078Z,93285.72
2022-09-03T19:04:46.007Z,93292.69
2022-09-03T19:06:40.171Z,93289.06
2022-09-03T19:08:41.605Z,93295.22
2022-09-03T19:10:36.037Z,93293.91
2022-09-03T19:12:26.331Z,93299.84
2022-09-03T19:14:17.192Z,93312.00
2022-09-03T19:16:12.825Z,93307.25
2022-09-03T19:18:18.565Z,93305.97
2022-09-03T19:20:24.488Z,93309.34
2022-09-03T19:22:35.216Z,93318.59
2022-09-03T19:24:25.507Z,93320.88
2022-09-03T19:26:16.988Z,93324.75
2022-09-03T19:28:07.070Z,93316.88
2022-09-03T19:30:15.961Z,93316.44
2022-09-03T19:32:08.703Z,93320.22
2022-09-03T19:34:02.223Z,93318.56
2022-09-03T19:35:57.496Z,93319.47
2022-09-03T19:37:56.763Z,93322.78
2022-09-03T19:39:47.177Z,93325.44
2022-09-03T19:41:40.981Z,93320.69
2022-09-03T19:43:50.412Z,93322.88
2022-09-03T19:45:46.695Z,93329.84
2022-09-03T19:47:45.493Z,93338.38
2022-09-03T19:49:39.253Z,93335.31
2022-09-03T19:51:43.149Z,93338.84
2022-09-03T19:53:35.893Z,93332.84
2022-09-03T19:55:26.318Z,93338.97
2022-09-03T19:57:22.317Z,93334.16
2022-09-03T19:59:16.142Z,93328.91
2022-09-03T20:01:07.003Z,93333.97
2022-09-03T20:02:57.260Z,93331.13
2022-09-03T20:04:53.260Z,93330.06